sensor_id;sensor_type;location;lat;lon;timestamp;pressure;altitude;pressure_sealevel;temperature;humidity
63700;BME280;49845;47.130;142.766;2023-01-31T00:00:51;100034.03;;;-14.65;75.51
63700;BME280;49845;47.130;142.766;2023-01-31T00:03:22;100034.75;;;-14.24;74.57
63700;BME280;49845;47.130;142.766;2023-01-31T00:05:52;100039.72;;;-13.92;74.22
63700;BME280;49845;47.130;142.766;2023-01-31T00:08:24;100040.91;;;-13.76;73.12
63700;BME280;49845;47.130;142.766;2023-01-31T00:10:58;99988.00;;;-13.89;72.16
63700;BME280;49845;47.130;142.766;2023-01-31T00:13:31;100040.38;;;-13.38;71.87
63700;BME280;49845;47.130;142.766;2023-01-31T00:16:02;100029.25;;;-13.18;71.07
63700;BME280;49845;47.130;142.766;2023-01-31T00:18:34;99974.50;;;-13.34;70.90
63700;BME280;49845;47.130;142.766;2023-01-31T00:21:08;100042.88;;;-12.81;70.39
63700;BME280;49845;47.130;142.766;2023-01-31T00:23:42;100018.81;;;-12.89;69.69
63700;BME280;49845;47.130;142.766;2023-01-31T00:26:14;100039.25;;;-12.73;68.74
63700;BME280;49845;47.130;142.766;2023-01-31T00:28:46;100043.63;;;-12.58;68.31
63700;BME280;49845;47.130;142.766;2023-01-31T00:31:17;100026.69;;;-12.38;65.49
63700;BME280;49845;47.130;142.766;2023-01-31T00:33:50;99941.78;;;-12.64;65.13
63700;BME280;49845;47.130;142.766;2023-01-31T00:36:22;100026.63;;;-12.02;64.66
63700;BME280;49845;47.130;142.766;2023-01-31T00:38:56;100001.63;;;-11.99;64.72
63700;BME280;49845;47.130;142.766;2023-01-31T00:41:28;99953.06;;;-12.22;64.19
63700;BME280;49845;47.130;142.766;2023-01-31T00:43:59;100034.28;;;-11.51;64.16
63700;BME280;49845;47.130;142.766;2023-01-31T00:46:30;100026.78;;;-11.37;63.64
63700;BME280;49845;47.130;142.766;2023-01-31T00:49:03;99946.44;;;-11.83;61.61
63700;BME280;49845;47.130;142.766;2023-01-31T00:51:33;100030.69;;;-11.16;61.59
63700;BME280;49845;47.130;142.766;2023-01-31T00:54:06;100021.34;;;-11.05;60.89
63700;BME280;49845;47.130;142.766;2023-01-31T00:56:37;100027.19;;;-10.79;59.51
63700;BME280;49845;47.130;142.766;2023-01-31T00:59:07;100023.72;;;-10.68;59.99
63700;BME280;49845;47.130;142.766;2023-01-31T01:01:38;99983.88;;;-10.72;59.77
63700;BME280;49845;47.130;142.766;2023-01-31T01:04:09;100011.66;;;-10.46;59.33
63700;BME280;49845;47.130;142.766;2023-01-31T01:06:39;100002.34;;;-10.60;56.14
63700;BME280;49845;47.130;142.766;2023-01-31T01:09:11;100021.13;;;-10.28;55.47
63700;BME280;49845;47.130;142.766;2023-01-31T01:11:42;100020.59;;;-10.37;56.36
63700;BME280;49845;47.130;142.766;2023-01-31T01:14:13;99980.00;;;-10.67;57.86
63700;BME280;49845;47.130;142.766;2023-01-31T01:16:43;100023.63;;;-10.15;59.64
63700;BME280;49845;47.130;142.766;2023-01-31T01:19:16;100014.41;;;-9.86;58.87
63700;BME280;49845;47.130;142.766;2023-01-31T01:21:47;100016.00;;;-9.60;58.17
63700;BME280;49845;47.130;142.766;2023-01-31T01:24:19;100024.78;;;-9.40;57.44
63700;BME280;49845;47.130;142.766;2023-01-31T01:26:49;100012.72;;;-9.44;56.94
63700;BME280;49845;47.130;142.766;2023-01-31T01:29:20;100017.19;;;-9.40;57.63
63700;BME280;49845;47.130;142.766;2023-01-31T01:31:51;100009.78;;;-9.37;56.33
63700;BME280;49845;47.130;142.766;2023-01-31T01:34:21;100005.69;;;-9.35;55.21
63700;BME280;49845;47.130;142.766;2023-01-31T01:36:52;99999.13;;;-9.31;54.40
63700;BME280;49845;47.130;142.766;2023-01-31T01:39:24;99983.44;;;-9.41;52.89
63700;BME280;49845;47.130;142.766;2023-01-31T01:41:57;99999.50;;;-9.10;52.89
63700;BME280;49845;47.130;142.766;2023-01-31T01:44:48;99925.69;;;-9.33;52.34
63700;BME280;49845;47.130;142.766;2023-01-31T01:47:30;99966.06;;;-8.90;51.71
63700;BME280;49845;47.130;142.766;2023-01-31T01:50:08;99981.94;;;-8.78;50.41
63700;BME280;49845;47.130;142.766;2023-01-31T01:52:44;99989.88;;;-8.72;50.57
63700;BME280;49845;47.130;142.766;2023-01-31T01:55:21;99987.50;;;-8.69;51.15
63700;BME280;49845;47.130;142.766;2023-01-31T01:58:03;99988.47;;;-8.66;51.35
63700;BME280;49845;47.130;142.766;2023-01-31T02:00:35;99985.31;;;-8.62;51.14
63700;BME280;49845;47.130;142.766;2023-01-31T02:03:07;99985.31;;;-8.62;51.42
63700;BME280;49845;47.130;142.766;2023-01-31T02:05:43;99995.47;;;-8.62;50.69
63700;BME280;49845;47.130;142.766;2023-01-31T02:08:18;99980.59;;;-8.56;50.86
63700;BME280;49845;47.130;142.766;2023-01-31T02:10:53;99975.59;;;-8.40;51.60
63700;BME280;49845;47.130;142.766;2023-01-31T02:13:26;99971.06;;;-8.29;50.78
63700;BME280;49845;47.130;142.766;2023-01-31T02:15:57;99970.97;;;-8.47;50.63
63700;BME280;49845;47.130;142.766;2023-01-31T02:18:28;99977.00;;;-8.45;50.64
63700;BME280;49845;47.130;142.766;2023-01-31T02:24:39;99971.50;;;-8.05;51.42
63700;BME280;49845;47.130;142.766;2023-01-31T02:30:48;99965.31;;;-7.77;51.30
63700;BME280;49845;47.130;142.766;2023-01-31T02:33:31;99970.41;;;-7.61;50.54
63700;BME280;49845;47.130;142.766;2023-01-31T02:36:14;99965.16;;;-7.48;50.66
63700;BME280;49845;47.130;142.766;2023-01-31T02:39:02;99968.97;;;-7.56;49.87
63700;BME280;49845;47.130;142.766;2023-01-31T02:41:42;99965.78;;;-7.52;49.63
63700;BME280;49845;47.130;142.766;2023-01-31T02:44:20;99922.50;;;-7.71;50.05
63700;BME280;49845;47.130;142.766;2023-01-31T02:47:18;99959.78;;;-7.70;50.80
63700;BME280;49845;47.130;142.766;2023-01-31T02:49:58;99947.88;;;-8.04;51.80
63700;BME280;49845;47.130;142.766;2023-01-31T02:52:39;99970.22;;;-7.97;51.84
63700;BME280;49845;47.130;142.766;2023-01-31T02:55:16;99935.44;;;-7.99;52.29
63700;BME280;49845;47.130;142.766;2023-01-31T02:58:06;99951.94;;;-7.75;51.57
63700;BME280;49845;47.130;142.766;2023-01-31T03:00:40;99941.06;;;-7.72;51.40
63700;BME280;49845;47.130;142.766;2023-01-31T03:03:19;99878.50;;;-8.06;53.04
63700;BME280;49845;47.130;142.766;2023-01-31T03:09:34;99949.03;;;-7.14;52.56
63700;BME280;49845;47.130;142.766;2023-01-31T03:12:35;99943.72;;;-6.84;53.77
63700;BME280;49845;47.130;142.766;2023-01-31T03:18:32;99936.31;;;-6.62;52.36
63700;BME280;49845;47.130;142.766;2023-01-31T03:21:08;99934.56;;;-6.45;52.82
63700;BME280;49845;47.130;142.766;2023-01-31T03:23:47;99933.97;;;-6.39;51.74
63700;BME280;49845;47.130;142.766;2023-01-31T03:26:23;99925.13;;;-6.47;51.02
63700;BME280;49845;47.130;142.766;2023-01-31T03:28:57;99921.75;;;-6.46;50.94
63700;BME280;49845;47.130;142.766;2023-01-31T03:31:35;99928.31;;;-6.34;51.01
63700;BME280;49845;47.130;142.766;2023-01-31T03:34:10;99929.59;;;-6.24;51.58
63700;BME280;49845;47.130;142.766;2023-01-31T03:36:48;99914.88;;;-6.31;50.49
63700;BME280;49845;47.130;142.766;2023-01-31T03:39:29;99914.94;;;-6.47;50.06
63700;BME280;49845;47.130;142.766;2023-01-31T03:42:06;99898.84;;;-7.02;49.32
63700;BME280;49845;47.130;142.766;2023-01-31T03:44:43;99925.16;;;-7.01;49.81
63700;BME280;49845;47.130;142.766;2023-01-31T03:47:23;99916.72;;;-6.82;50.85
63700;BME280;49845;47.130;142.766;2023-01-31T03:49:57;99916.84;;;-6.43;51.86
63700;BME280;49845;47.130;142.766;2023-01-31T03:52:32;99818.47;;;-6.83;52.13
63700;BME280;49845;47.130;142.766;2023-01-31T03:55:11;99929.19;;;-5.94;52.60
63700;BME280;49845;47.130;142.766;2023-01-31T03:57:49;99906.91;;;-6.00;51.96
63700;BME280;49845;47.130;142.766;2023-01-31T04:00:22;99868.16;;;-6.14;51.52
63700;BME280;49845;47.130;142.766;2023-01-31T04:03:00;99919.28;;;-5.88;50.73
63700;BME280;49845;47.130;142.766;2023-01-31T04:05:32;99912.72;;;-5.83;51.28
63700;BME280;49845;47.130;142.766;2023-01-31T04:08:04;99890.69;;;-5.82;52.66
63700;BME280;49845;47.130;142.766;2023-01-31T04:10:34;99916.41;;;-5.76;51.40
63700;BME280;49845;47.130;142.766;2023-01-31T04:13:07;99912.72;;;-5.83;51.83
63700;BME280;49845;47.130;142.766;2023-01-31T04:15:38;99911.63;;;-5.69;53.14
63700;BME280;49845;47.130;142.766;2023-01-31T04:18:11;99915.50;;;-5.77;51.51
63700;BME280;49845;47.130;142.766;2023-01-31T04:20:42;99906.16;;;-5.78;53.49
63700;BME280;49845;47.130;142.766;2023-01-31T04:23:12;99904.91;;;-5.67;52.30
63700;BME280;49845;47.130;142.766;2023-01-31T04:25:43;99894.69;;;-5.88;51.32
63700;BME280;49845;47.130;142.766;2023-01-31T04:28:15;99911.34;;;-5.75;50.73
63700;BME280;49845;47.130;142.766;2023-01-31T04:30:52;99915.47;;;-5.78;50.25
63700;BME280;49845;47.130;142.766;2023-01-31T04:33:23;99912.09;;;-5.77;51.09
63700;BME280;49845;47.130;142.766;2023-01-31T04:35:54;99919.69;;;-5.79;50.92
63700;BME280;49845;47.130;142.766;2023-01-31T04:38:24;99911.22;;;-5.78;51.85
63700;BME280;49845;47.130;142.766;2023-01-31T04:40:55;99908.28;;;-5.87;50.92
63700;BME280;49845;47.130;142.766;2023-01-31T04:43:27;99914.31;;;-5.85;51.21
63700;BME280;49845;47.130;142.766;2023-01-31T04:45:58;99911.78;;;-5.85;51.21
63700;BME280;49845;47.130;142.766;2023-01-31T04:48:28;99912.44;;;-5.89;51.43
63700;BME280;49845;47.130;142.766;2023-01-31T04:50:59;99852.09;;;-6.32;51.94
63700;BME280;49845;47.130;142.766;2023-01-31T04:53:30;99868.56;;;-6.24;51.44
63700;BME280;49845;47.130;142.766;2023-01-31T04:56:00;99907.41;;;-5.88;52.32
63700;BME280;49845;47.130;142.766;2023-01-31T04:58:33;99904.25;;;-5.82;52.19
63700;BME280;49845;47.130;142.766;2023-01-31T05:01:03;99899.56;;;-5.73;52.23
63700;BME280;49845;47.130;142.766;2023-01-31T05:03:34;99911.09;;;-5.81;51.02
63700;BME280;49845;47.130;142.766;2023-01-31T05:06:05;99911.22;;;-5.78;51.83
63700;BME280;49845;47.130;142.766;2023-01-31T05:08:36;99916.06;;;-5.84;51.44
63700;BME280;49845;47.130;142.766;2023-01-31T05:11:07;99911.09;;;-5.81;51.92
63700;BME280;49845;47.130;142.766;2023-01-31T05:13:39;99916.44;;;-5.96;51.29
63700;BME280;49845;47.130;142.766;2023-01-31T05:16:11;99917.34;;;-6.13;50.78
63700;BME280;49845;47.130;142.766;2023-01-31T05:18:41;99900.69;;;-6.26;51.30
63700;BME280;49845;47.130;142.766;2023-01-31T05:21:12;99918.34;;;-6.10;52.36
63700;BME280;49845;47.130;142.766;2023-01-31T05:23:42;99913.00;;;-6.16;51.57
63700;BME280;49845;47.130;142.766;2023-01-31T05:26:13;99908.66;;;-6.18;51.63
63700;BME280;49845;47.130;142.766;2023-01-31T05:28:45;99911.00;;;-6.23;52.10
63700;BME280;49845;47.130;142.766;2023-01-31T05:31:15;99920.56;;;-6.17;52.86
63700;BME280;49845;47.130;142.766;2023-01-31T05:33:46;99908.78;;;-6.15;52.78
63700;BME280;49845;47.130;142.766;2023-01-31T05:36:16;99919.09;;;-6.12;52.11
63700;BME280;49845;47.130;142.766;2023-01-31T05:38:47;99922.09;;;-6.21;52.58
63700;BME280;49845;47.130;142.766;2023-01-31T05:41:17;99918.13;;;-6.34;52.67
63700;BME280;49845;47.130;142.766;2023-01-31T05:43:50;99924.22;;;-6.30;53.71
63700;BME280;49845;47.130;142.766;2023-01-31T05:46:20;99877.63;;;-6.48;53.62
63700;BME280;49845;47.130;142.766;2023-01-31T05:48:51;99936.28;;;-6.26;53.37
63700;BME280;49845;47.130;142.766;2023-01-31T05:51:21;99932.16;;;-6.24;52.96
63700;BME280;49845;47.130;142.766;2023-01-31T05:53:52;99936.84;;;-6.32;53.08
63700;BME280;49845;47.130;142.766;2023-01-31T05:56:23;99944.69;;;-6.27;53.56
63700;BME280;49845;47.130;142.766;2023-01-31T05:58:55;99942.09;;;-6.28;53.18
63700;BME280;49845;47.130;142.766;2023-01-31T06:01:26;99932.97;;;-6.43;52.19
63700;BME280;49845;47.130;142.766;2023-01-31T06:03:57;99944.38;;;-6.53;52.29
63700;BME280;49845;47.130;142.766;2023-01-31T06:06:28;99944.88;;;-6.60;53.07
63700;BME280;49845;47.130;142.766;2023-01-31T06:08:58;99945.19;;;-6.54;54.38
63700;BME280;49845;47.130;142.766;2023-01-31T06:11:29;99952.13;;;-6.49;54.27
63700;BME280;49845;47.130;142.766;2023-01-31T06:14:01;99958.81;;;-6.52;53.26
63700;BME280;49845;47.130;142.766;2023-01-31T06:16:31;99957.72;;;-6.57;53.40
63700;BME280;49845;47.130;142.766;2023-01-31T06:19:02;99957.66;;;-6.58;52.88
63700;BME280;49845;47.130;142.766;2023-01-31T06:21:33;99967.09;;;-6.56;53.59
63700;BME280;49845;47.130;142.766;2023-01-31T06:24:04;99962.03;;;-6.56;53.40
63700;BME280;49845;47.130;142.766;2023-01-31T06:26:34;99966.53;;;-6.68;52.35
63700;BME280;49845;47.130;142.766;2023-01-31T06:29:07;99969.19;;;-7.01;52.02
63700;BME280;49845;47.130;142.766;2023-01-31T06:31:38;99935.94;;;-7.40;52.81
63700;BME280;49845;47.130;142.766;2023-01-31T06:34:11;99965.28;;;-7.28;53.14
63700;BME280;49845;47.130;142.766;2023-01-31T06:36:42;99974.69;;;-7.44;53.93
63700;BME280;49845;47.130;142.766;2023-01-31T06:39:13;99900.50;;;-8.05;54.09
63700;BME280;49845;47.130;142.766;2023-01-31T06:41:43;99988.31;;;-7.74;54.06
63700;BME280;49845;47.130;142.766;2023-01-31T06:44:15;99984.50;;;-7.83;54.62
63700;BME280;49845;47.130;142.766;2023-01-31T06:46:46;99989.81;;;-7.94;55.17
63700;BME280;49845;47.130;142.766;2023-01-31T06:49:16;99985.13;;;-8.03;56.00
63700;BME280;49845;47.130;142.766;2023-01-31T06:51:47;99957.50;;;-8.30;56.39
63700;BME280;49845;47.130;142.766;2023-01-31T06:54:17;99954.19;;;-8.45;56.31
63700;BME280;49845;47.130;142.766;2023-01-31T06:56:48;99988.88;;;-8.28;57.66
63700;BME280;49845;47.130;142.766;2023-01-31T06:59:20;99977.44;;;-8.52;56.76
63700;BME280;49845;47.130;142.766;2023-01-31T07:01:51;99995.53;;;-8.46;57.56
63700;BME280;49845;47.130;142.766;2023-01-31T07:04:21;100002.44;;;-8.58;58.62
63700;BME280;49845;47.130;142.766;2023-01-31T07:06:52;100000.88;;;-8.71;59.27
63700;BME280;49845;47.130;142.766;2023-01-31T07:09:22;100006.75;;;-8.87;58.87
63700;BME280;49845;47.130;142.766;2023-01-31T07:11:53;100005.06;;;-9.01;58.65
63700;BME280;49845;47.130;142.766;2023-01-31T07:14:25;100011.72;;;-9.18;58.76
63700;BME280;49845;47.130;142.766;2023-01-31T07:16:56;99926.84;;;-9.86;58.80
63700;BME280;49845;47.130;142.766;2023-01-31T07:19:28;99989.47;;;-9.67;59.62
63700;BME280;49845;47.130;142.766;2023-01-31T07:22:00;100026.44;;;-9.69;60.44
63700;BME280;49845;47.130;142.766;2023-01-31T07:24:30;100020.44;;;-9.84;61.44
63700;BME280;49845;47.130;142.766;2023-01-31T07:27:01;100014.28;;;-10.03;62.10
63700;BME280;49845;47.130;142.766;2023-01-31T07:29:33;99987.16;;;-10.33;62.00
63700;BME280;49845;47.130;142.766;2023-01-31T07:32:04;100028.50;;;-10.18;62.81
63700;BME280;49845;47.130;142.766;2023-01-31T07:34:35;100036.22;;;-10.30;62.64
63700;BME280;49845;47.130;142.766;2023-01-31T07:37:05;100042.34;;;-10.39;62.65
63700;BME280;49845;47.130;142.766;2023-01-31T07:39:36;100038.16;;;-10.39;62.90
63700;BME280;49845;47.130;142.766;2023-01-31T07:42:06;100034.78;;;-10.53;63.08
63700;BME280;49845;47.130;142.766;2023-01-31T07:44:38;100045.75;;;-10.52;63.50
63700;BME280;49845;47.130;142.766;2023-01-31T07:47:09;100047.00;;;-10.59;63.88
63700;BME280;49845;47.130;142.766;2023-01-31T07:49:39;100048.75;;;-10.71;64.34
63700;BME280;49845;47.130;142.766;2023-01-31T07:52:09;100046.00;;;-10.88;64.03
63700;BME280;49845;47.130;142.766;2023-01-31T07:54:40;100053.53;;;-11.01;64.04
63700;BME280;49845;47.130;142.766;2023-01-31T07:57:10;100059.75;;;-11.09;64.56
63700;BME280;49845;47.130;142.766;2023-01-31T07:59:43;100062.44;;;-11.19;64.09
63700;BME280;49845;47.130;142.766;2023-01-31T08:02:17;100072.91;;;-11.13;64.63
63700;BME280;49845;47.130;142.766;2023-01-31T08:15:27;100089.59;;;-12.14;64.34
63700;BME280;49845;47.130;142.766;2023-01-31T08:17:01;100086.38;;;-12.94;63.63
63700;BME280;49845;47.130;142.766;2023-01-31T08:19:38;100098.47;;;-13.45;65.53
63700;BME280;49845;47.130;142.766;2023-01-31T08:22:09;100073.75;;;-13.95;66.72
63700;BME280;49845;47.130;142.766;2023-01-31T08:24:41;100092.59;;;-14.22;67.82
63700;BME280;49845;47.130;142.766;2023-01-31T08:27:13;100095.69;;;-14.47;69.06
63700;BME280;49845;47.130;142.766;2023-01-31T08:29:44;100096.47;;;-14.58;70.05
63700;BME280;49845;47.130;142.766;2023-01-31T08:32:16;100093.59;;;-14.63;71.19
63700;BME280;49845;47.130;142.766;2023-01-31T08:34:48;100093.59;;;-14.63;71.71
63700;BME280;49845;47.130;142.766;2023-01-31T08:37:19;100098.63;;;-14.63;71.93
63700;BME280;49845;47.130;142.766;2023-01-31T08:39:49;100105.50;;;-14.60;71.98
63700;BME280;49845;47.130;142.766;2023-01-31T08:42:20;100090.50;;;-14.81;72.07
63700;BME280;49845;47.130;142.766;2023-01-31T08:44:53;100108.56;;;-14.95;72.23
63700;BME280;49845;47.130;142.766;2023-01-31T08:47:25;100103.31;;;-15.29;72.29
63700;BME280;49845;47.130;142.766;2023-01-31T08:49:59;100105.28;;;-15.45;73.71
63700;BME280;49845;47.130;142.766;2023-01-31T08:52:29;100102.28;;;-15.51;74.34
63700;BME280;49845;47.130;142.766;2023-01-31T08:55:02;100102.28;;;-15.51;74.95
63700;BME280;49845;47.130;142.766;2023-01-31T08:57:36;100106.03;;;-15.56;75.73
63700;BME280;49845;47.130;142.766;2023-01-31T09:00:24;100114.78;;;-15.61;76.04
63700;BME280;49845;47.130;142.766;2023-01-31T09:03:00;100117.75;;;-15.66;76.10
63700;BME280;49845;47.130;142.766;2023-01-31T09:05:31;100114.91;;;-15.70;76.09
63700;BME280;49845;47.130;142.766;2023-01-31T09:08:08;100117.28;;;-15.72;76.28
63700;BME280;49845;47.130;142.766;2023-01-31T09:10:52;100103.47;;;-15.87;76.23
63700;BME280;49845;47.130;142.766;2023-01-31T09:13:33;100099.94;;;-15.99;76.24
63700;BME280;49845;47.130;142.766;2023-01-31T09:16:21;100123.72;;;-15.94;76.58
63700;BME280;49845;47.130;142.766;2023-01-31T09:18:54;100054.06;;;-16.48;76.96
63700;BME280;49845;47.130;142.766;2023-01-31T09:21:26;100124.13;;;-16.19;76.90
63700;BME280;49845;47.130;142.766;2023-01-31T09:24:00;100129.94;;;-16.28;77.08
63700;BME280;49845;47.130;142.766;2023-01-31T09:26:34;100127.25;;;-16.21;77.09
63700;BME280;49845;47.130;142.766;2023-01-31T09:29:05;100122.84;;;-16.24;76.97
63700;BME280;49845;47.130;142.766;2023-01-31T09:31:35;100125.81;;;-16.28;76.78
63700;BME280;49845;47.130;142.766;2023-01-31T09:34:07;100126.06;;;-16.25;76.56
63700;BME280;49845;47.130;142.766;2023-01-31T09:36:41;100105.28;;;-16.34;76.29
63700;BME280;49845;47.130;142.766;2023-01-31T09:39:13;100099.75;;;-16.40;76.25
63700;BME280;49845;47.130;142.766;2023-01-31T09:41:46;100057.31;;;-16.78;76.06
63700;BME280;49845;47.130;142.766;2023-01-31T09:44:20;100133.69;;;-16.53;75.91
63700;BME280;49845;47.130;142.766;2023-01-31T09:46:57;100113.56;;;-16.73;75.94
63700;BME280;49845;47.130;142.766;2023-01-31T09:49:34;100124.56;;;-16.71;76.50
63700;BME280;49845;47.130;142.766;2023-01-31T09:52:09;100121.50;;;-16.77;77.10
63700;BME280;49845;47.130;142.766;2023-01-31T09:54:40;100133.56;;;-16.73;77.35
63700;BME280;49845;47.130;142.766;2023-01-31T09:57:33;100114.97;;;-16.66;78.29
63700;BME280;49845;47.130;142.766;2023-01-31T10:00:15;100121.31;;;-16.51;78.17
63700;BME280;49845;47.130;142.766;2023-01-31T10:03:01;100118.16;;;-16.59;78.16
63700;BME280;49845;47.130;142.766;2023-01-31T10:05:39;100117.94;;;-16.52;78.30
63700;BME280;49845;47.130;142.766;2023-01-31T10:08:16;100136.84;;;-16.45;78.16
63700;BME280;49845;47.130;142.766;2023-01-31T10:10:51;100135.16;;;-16.55;78.18
63700;BME280;49845;47.130;142.766;2023-01-31T10:13:27;100133.00;;;-16.60;78.47
63700;BME280;49845;47.130;142.766;2023-01-31T10:16:11;100134.63;;;-16.61;78.28
63700;BME280;49845;47.130;142.766;2023-01-31T10:18:48;100080.78;;;-16.86;78.42
63700;BME280;49845;47.130;142.766;2023-01-31T10:21:29;100137.75;;;-16.44;78.52
63700;BME280;49845;47.130;142.766;2023-01-31T10:24:11;100121.69;;;-16.57;78.12
63700;BME280;49845;47.130;142.766;2023-01-31T10:26:44;100135.25;;;-16.63;78.23
63700;BME280;49845;47.130;142.766;2023-01-31T10:29:38;100146.47;;;-16.68;78.15
63700;BME280;49845;47.130;142.766;2023-01-31T10:32:36;100118.19;;;-16.78;78.13
63700;BME280;49845;47.130;142.766;2023-01-31T10:35:13;100150.41;;;-16.62;78.22
63700;BME280;49845;47.130;142.766;2023-01-31T10:37:54;100080.41;;;-17.00;77.69
63700;BME280;49845;47.130;142.766;2023-01-31T10:43:56;100135.16;;;-16.55;77.67
63700;BME280;49845;47.130;142.766;2023-01-31T10:49:24;100091.88;;;-16.64;77.23
63700;BME280;49845;47.130;142.766;2023-01-31T10:52:15;100139.16;;;-16.38;76.68
63700;BME280;49845;47.130;142.766;2023-01-31T10:55:09;100132.19;;;-16.50;75.93
63700;BME280;49845;47.130;142.766;2023-01-31T11:01:11;100143.41;;;-16.56;75.57
63700;BME280;49845;47.130;142.766;2023-01-31T11:04:24;100156.69;;;-16.57;75.55
63700;BME280;49845;47.130;142.766;2023-01-31T11:07:08;100168.16;;;-16.59;75.39
63700;BME280;49845;47.130;142.766;2023-01-31T11:09:57;100171.94;;;-16.54;74.89
63700;BME280;49845;47.130;142.766;2023-01-31T11:12:41;100112.06;;;-16.71;75.22
63700;BME280;49845;47.130;142.766;2023-01-31T11:15:17;100168.03;;;-16.41;74.84
63700;BME280;49845;47.130;142.766;2023-01-31T11:17:49;100167.16;;;-16.42;74.82
63700;BME280;49845;47.130;142.766;2023-01-31T11:20:26;100151.09;;;-16.25;75.59
63700;BME280;49845;47.130;142.766;2023-01-31T11:22:59;100156.44;;;-16.12;75.67
63700;BME280;49845;47.130;142.766;2023-01-31T11:25:33;100147.97;;;-16.03;75.82
63700;BME280;49845;47.130;142.766;2023-01-31T11:28:18;100134.59;;;-16.23;75.43
63700;BME280;49845;47.130;142.766;2023-01-31T11:30:54;100089.63;;;-16.61;74.86
63700;BME280;49845;47.130;142.766;2023-01-31T11:33:40;100151.19;;;-16.34;74.63
63700;BME280;49845;47.130;142.766;2023-01-31T11:36:15;100155.59;;;-16.31;74.60
63700;BME280;49845;47.130;142.766;2023-01-31T11:38:50;100168.03;;;-16.41;74.08
63700;BME280;49845;47.130;142.766;2023-01-31T11:41:33;100166.53;;;-16.39;74.07
63700;BME280;49845;47.130;142.766;2023-01-31T11:44:21;100163.56;;;-16.35;73.92
63700;BME280;49845;47.130;142.766;2023-01-31T11:46:55;100128.28;;;-16.76;73.21
63700;BME280;49845;47.130;142.766;2023-01-31T11:49:31;100097.38;;;-16.87;73.48
63700;BME280;49845;47.130;142.766;2023-01-31T11:52:11;100162.31;;;-16.30;74.30
63700;BME280;49845;47.130;142.766;2023-01-31T11:54:44;100168.28;;;-16.38;74.21
63700;BME280;49845;47.130;142.766;2023-01-31T11:57:21;100155.34;;;-16.72;73.12
63700;BME280;49845;47.130;142.766;2023-01-31T11:59:57;100163.50;;;-16.83;72.75
63700;BME280;49845;47.130;142.766;2023-01-31T12:02:37;100164.00;;;-16.77;72.64
63700;BME280;49845;47.130;142.766;2023-01-31T12:05:10;100164.53;;;-16.81;72.96
63700;BME280;49845;47.130;142.766;2023-01-31T12:07:44;100167.81;;;-16.72;73.42
63700;BME280;49845;47.130;142.766;2023-01-31T12:10:41;100177.16;;;-16.61;73.62
63700;BME280;49845;47.130;142.766;2023-01-31T12:13:53;100173.16;;;-16.59;72.81
63700;BME280;49845;47.130;142.766;2023-01-31T12:16:37;100160.84;;;-16.66;72.36
63700;BME280;49845;47.130;142.766;2023-01-31T12:19:19;100169.91;;;-16.58;72.17
63700;BME280;49845;47.130;142.766;2023-01-31T12:22:02;100173.28;;;-16.76;71.17
63700;BME280;49845;47.130;142.766;2023-01-31T12:24:43;100179.75;;;-16.97;70.75
63700;BME280;49845;47.130;142.766;2023-01-31T12:27:27;100180.34;;;-17.27;70.41
63700;BME280;49845;47.130;142.766;2023-01-31T12:30:25;100185.16;;;-17.48;70.56
63700;BME280;49845;47.130;142.766;2023-01-31T12:33:12;100180.78;;;-17.59;70.68
63700;BME280;49845;47.130;142.766;2023-01-31T12:36:04;100172.72;;;-17.65;70.70
63700;BME280;49845;47.130;142.766;2023-01-31T12:38:57;100182.25;;;-17.61;70.93
63700;BME280;49845;47.130;142.766;2023-01-31T12:41:34;100180.19;;;-17.56;71.32
63700;BME280;49845;47.130;142.766;2023-01-31T12:44:34;100173.47;;;-17.66;71.30
63700;BME280;49845;47.130;142.766;2023-01-31T12:47:30;100193.94;;;-17.88;71.01
63700;BME280;49845;47.130;142.766;2023-01-31T12:50:19;100171.97;;;-17.92;71.63
63700;BME280;49845;47.130;142.766;2023-01-31T12:53:10;100161.00;;;-18.11;71.58
63700;BME280;49845;47.130;142.766;2023-01-31T12:55:58;100163.91;;;-18.15;72.27
63700;BME280;49845;47.130;142.766;2023-01-31T12:58:43;100149.38;;;-18.19;73.09
63700;BME280;49845;47.130;142.766;2023-01-31T13:01:21;100066.28;;;-18.46;74.18
63700;BME280;49845;47.130;142.766;2023-01-31T13:04:20;100164.69;;;-17.71;75.19
63700;BME280;49845;47.130;142.766;2023-01-31T13:06:59;100159.69;;;-17.71;75.15
63700;BME280;49845;47.130;142.766;2023-01-31T13:09:34;100117.53;;;-18.05;75.12
63700;BME280;49845;47.130;142.766;2023-01-31T13:12:08;100178.84;;;-17.53;75.69
63700;BME280;49845;47.130;142.766;2023-01-31T13:14:45;100181.00;;;-17.38;75.72
63700;BME280;49845;47.130;142.766;2023-01-31T13:17:23;100159.91;;;-17.51;75.57
63700;BME280;49845;47.130;142.766;2023-01-31T13:19:59;100038.91;;;-18.10;76.31
63700;BME280;49845;47.130;142.766;2023-01-31T13:22:38;100176.00;;;-17.38;75.79
63700;BME280;49845;47.130;142.766;2023-01-31T13:25:17;100135.09;;;-17.94;75.09
63700;BME280;49845;47.130;142.766;2023-01-31T13:27:57;100168.13;;;-17.97;74.07
63700;BME280;49845;47.130;142.766;2023-01-31T13:30:37;100103.09;;;-18.52;74.04
63700;BME280;49845;47.130;142.766;2023-01-31T13:33:22;100179.91;;;-18.13;74.55
63700;BME280;49845;47.130;142.766;2023-01-31T13:36:05;100100.03;;;-18.58;74.13
63700;BME280;49845;47.130;142.766;2023-01-31T13:38:41;100163.94;;;-18.24;74.81
63700;BME280;49845;47.130;142.766;2023-01-31T13:41:19;100159.09;;;-18.22;75.20
63700;BME280;49845;47.130;142.766;2023-01-31T13:43:52;100169.50;;;-18.09;75.54